sensor_id;sensor_type;location;lat;lon;timestamp;pressure;altitude;pressure_sealevel;temperature;humidity
5283;BME280;15376;48.540;9.268;2023-05-14T00:00:47;97528.53;;;10.15;100.00
5283;BME280;15376;48.540;9.268;2023-05-14T00:03:13;97525.69;;;10.16;100.00
5283;BME280;15376;48.540;9.268;2023-05-14T00:05:38;97503.22;;;10.04;100.00
5283;BME280;15376;48.540;9.268;2023-05-14T00:08:04;97523.94;;;10.09;100.00
5283;BME280;15376;48.540;9.268;2023-05-14T00:10:30;97511.19;;;10.04;100.00
5283;BME280;15376;48.540;9.268;2023-05-14T00:12:55;97512.38;;;10.01;100.00
5283;BME280;15376;48.540;9.268;2023-05-14T00:15:21;97499.28;;;10.00;100.00
5283;BME280;15376;48.540;9.268;2023-05-14T00:17:46;97500.56;;;10.04;100.00
5283;BME280;15376;48.540;9.268;2023-05-14T00:20:12;97511.66;;;10.08;100.00
5283;BME280;15376;48.540;9.268;2023-05-14T00:22:38;97498.75;;;10.04;100.00
5283;BME280;15376;48.540;9.268;2023-05-14T00:25:04;97504.81;;;10.13;100.00
5283;BME280;15376;48.540;9.268;2023-05-14T00:27:30;97496.38;;;10.10;100.00
5283;BME280;15376;48.540;9.268;2023-05-14T00:29:56;97501.16;;;10.14;100.00
5283;BME280;15376;48.540;9.268;2023-05-14T00:32:21;97497.50;;;10.15;100.00
5283;BME280;15376;48.540;9.268;2023-05-14T00:34:47;97498.97;;;10.18;100.00
5283;BME280;15376;48.540;9.268;2023-05-14T00:37:13;97498.97;;;10.18;100.00
5283;BME280;15376;48.540;9.268;2023-05-14T00:39:38;97498.97;;;10.18;100.00
5283;BME280;15376;48.540;9.268;2023-05-14T00:42:04;97484.22;;;10.15;100.00
5283;BME280;15376;48.540;9.268;2023-05-14T00:44:29;97489.38;;;10.17;100.00
5283;BME280;15376;48.540;9.268;2023-05-14T00:46:54;97485.25;;;10.14;100.00
5283;BME280;15376;48.540;9.268;2023-05-14T00:49:20;97474.16;;;10.11;100.00
5283;BME280;15376;48.540;9.268;2023-05-14T00:51:45;97465.38;;;10.10;100.00
5283;BME280;15376;48.540;9.268;2023-05-14T00:54:13;97473.97;;;10.12;100.00
5283;BME280;15376;48.540;9.268;2023-05-14T00:56:39;97476.28;;;10.15;100.00
5283;BME280;15376;48.540;9.268;2023-05-14T00:59:04;97474.25;;;10.17;100.00
5283;BME280;15376;48.540;9.268;2023-05-14T01:01:30;97460.72;;;10.12;100.00
5283;BME280;15376;48.540;9.268;2023-05-14T01:03:56;97472.63;;;10.16;100.00
5283;BME280;15376;48.540;9.268;2023-05-14T01:06:28;97474.81;;;10.13;100.00
5283;BME280;15376;48.540;9.268;2023-05-14T01:09:04;97470.97;;;10.15;100.00
5283;BME280;15376;48.540;9.268;2023-05-14T01:14:50;97470.97;;;10.15;100.00
5283;BME280;15376;48.540;9.268;2023-05-14T01:17:19;97465.66;;;10.15;100.00
5283;BME280;15376;48.540;9.268;2023-05-14T01:19:47;97460.78;;;10.04;100.00
5283;BME280;15376;48.540;9.268;2023-05-14T01:22:13;97460.41;;;10.07;100.00
5283;BME280;15376;48.540;9.268;2023-05-14T01:24:38;97451.91;;;9.97;100.00
5283;BME280;15376;48.540;9.268;2023-05-14T01:29:34;97445.38;;;9.85;100.00
5283;BME280;15376;48.540;9.268;2023-05-14T01:32:05;97456.19;;;9.83;100.00
5283;BME280;15376;48.540;9.268;2023-05-14T01:34:32;97458.66;;;9.85;100.00
5283;BME280;15376;48.540;9.268;2023-05-14T01:36:59;97470.09;;;9.85;100.00
5283;BME280;15376;48.540;9.268;2023-05-14T01:39:26;97468.97;;;9.80;100.00
5283;BME280;15376;48.540;9.268;2023-05-14T01:41:53;97464.53;;;9.72;100.00
5283;BME280;15376;48.540;9.268;2023-05-14T01:44:18;97466.72;;;9.68;100.00
5283;BME280;15376;48.540;9.268;2023-05-14T01:46:44;97448.59;;;9.57;100.00
5283;BME280;15376;48.540;9.268;2023-05-14T01:49:10;97454.56;;;9.59;100.00
5283;BME280;15376;48.540;9.268;2023-05-14T01:51:35;97457.78;;;9.69;100.00
5283;BME280;15376;48.540;9.268;2023-05-14T01:54:01;97449.59;;;9.56;100.00
5283;BME280;15376;48.540;9.268;2023-05-14T01:56:27;97443.38;;;9.49;100.00
5283;BME280;15376;48.540;9.268;2023-05-14T01:58:52;97436.75;;;9.45;100.00
5283;BME280;15376;48.540;9.268;2023-05-14T02:01:19;97440.53;;;9.51;100.00
5283;BME280;15376;48.540;9.268;2023-05-14T02:03:45;97454.09;;;9.56;100.00
5283;BME280;15376;48.540;9.268;2023-05-14T02:06:10;97458.75;;;9.54;100.00
5283;BME280;15376;48.540;9.268;2023-05-14T02:08:36;97460.56;;;9.53;100.00
5283;BME280;15376;48.540;9.268;2023-05-14T02:11:01;97460.28;;;9.48;100.00
5283;BME280;15376;48.540;9.268;2023-05-14T02:13:26;97454.72;;;9.35;100.00
5283;BME280;15376;48.540;9.268;2023-05-14T02:15:51;97464.97;;;9.38;100.00
5283;BME280;15376;48.540;9.268;2023-05-14T02:18:17;97475.56;;;9.38;100.00
5283;BME280;15376;48.540;9.268;2023-05-14T02:20:43;97466.19;;;9.27;100.00
5283;BME280;15376;48.540;9.268;2023-05-14T02:23:08;97467.72;;;9.22;100.00
5283;BME280;15376;48.540;9.268;2023-05-14T02:25:33;97448.59;;;9.12;100.00
5283;BME280;15376;48.540;9.268;2023-05-14T02:27:58;97470.91;;;9.17;100.00
5283;BME280;15376;48.540;9.268;2023-05-14T02:30:24;97457.84;;;9.16;100.00
5283;BME280;15376;48.540;9.268;2023-05-14T02:32:49;97465.22;;;9.20;100.00
5283;BME280;15376;48.540;9.268;2023-05-14T02:35:14;97452.81;;;9.21;100.00
5283;BME280;15376;48.540;9.268;2023-05-14T02:37:40;97469.97;;;9.33;100.00
5283;BME280;15376;48.540;9.268;2023-05-14T02:40:06;97468.78;;;9.35;100.00
5283;BME280;15376;48.540;9.268;2023-05-14T02:42:31;97456.88;;;9.31;100.00
5283;BME280;15376;48.540;9.268;2023-05-14T02:44:57;97464.16;;;9.38;100.00
5283;BME280;15376;48.540;9.268;2023-05-14T02:47:22;97455.38;;;9.37;100.00
5283;BME280;15376;48.540;9.268;2023-05-14T02:49:48;97470.41;;;9.45;100.00
5283;BME280;15376;48.540;9.268;2023-05-14T02:52:13;97476.19;;;9.48;100.00
5283;BME280;15376;48.540;9.268;2023-05-14T02:54:38;97469.88;;;9.49;100.00
5283;BME280;15376;48.540;9.268;2023-05-14T02:57:04;97456.16;;;9.46;100.00
5283;BME280;15376;48.540;9.268;2023-05-14T02:59:29;97468.44;;;9.61;100.00
5283;BME280;15376;48.540;9.268;2023-05-14T03:01:55;97466.44;;;9.63;100.00
5283;BME280;15376;48.540;9.268;2023-05-14T03:04:21;97475.16;;;9.72;100.00
5283;BME280;15376;48.540;9.268;2023-05-14T03:06:46;97454.47;;;9.67;100.00
5283;BME280;15376;48.540;9.268;2023-05-14T03:09:11;97460.06;;;9.73;100.00
5283;BME280;15376;48.540;9.268;2023-05-14T03:11:36;97462.53;;;9.74;100.00
5283;BME280;15376;48.540;9.268;2023-05-14T03:14:02;97455.94;;;9.70;100.00
5283;BME280;15376;48.540;9.268;2023-05-14T03:16:27;97452.19;;;9.64;100.00
5283;BME280;15376;48.540;9.268;2023-05-14T03:18:52;97449.69;;;9.63;100.00
5283;BME280;15376;48.540;9.268;2023-05-14T03:21:18;97439.09;;;9.63;100.00
5283;BME280;15376;48.540;9.268;2023-05-14T03:23:43;97453.28;;;9.70;100.00
5283;BME280;15376;48.540;9.268;2023-05-14T03:26:09;97447.81;;;9.72;100.00
5283;BME280;15376;48.540;9.268;2023-05-14T03:28:34;97431.97;;;9.63;100.00
5283;BME280;15376;48.540;9.268;2023-05-14T03:30:59;97441.88;;;9.69;100.00
5283;BME280;15376;48.540;9.268;2023-05-14T03:33:25;97452.41;;;9.78;100.00
5283;BME280;15376;48.540;9.268;2023-05-14T03:35:50;97461.78;;;9.88;100.00
5283;BME280;15376;48.540;9.268;2023-05-14T03:38:16;97454.28;;;9.92;100.00
5283;BME280;15376;48.540;9.268;2023-05-14T03:40:42;97460.59;;;9.91;100.00
5283;BME280;15376;48.540;9.268;2023-05-14T03:43:07;97457.94;;;9.91;100.00
5283;BME280;15376;48.540;9.268;2023-05-14T03:45:33;97454.09;;;9.93;100.00
5283;BME280;15376;48.540;9.268;2023-05-14T03:47:59;97454.94;;;9.94;100.00
5283;BME280;15376;48.540;9.268;2023-05-14T03:50:24;97453.38;;;9.99;100.00
5283;BME280;15376;48.540;9.268;2023-05-14T03:52:53;97448.63;;;9.95;100.00
5283;BME280;15376;48.540;9.268;2023-05-14T03:55:19;97458.69;;;9.99;100.00
5283;BME280;15376;48.540;9.268;2023-05-14T03:57:45;97452.94;;;9.96;100.00
5283;BME280;15376;48.540;9.268;2023-05-14T04:00:10;97463.25;;;10.06;100.00
5283;BME280;15376;48.540;9.268;2023-05-14T04:02:36;97444.16;;;9.95;100.00
5283;BME280;15376;48.540;9.268;2023-05-14T04:05:01;97453.66;;;10.04;100.00
5283;BME280;15376;48.540;9.268;2023-05-14T04:07:27;97458.13;;;10.04;100.00
5283;BME280;15376;48.540;9.268;2023-05-14T04:09:52;97458.69;;;10.14;100.00
5283;BME280;15376;48.540;9.268;2023-05-14T04:12:17;97458.88;;;10.13;100.00
5283;BME280;15376;48.540;9.268;2023-05-14T04:14:43;97451.47;;;10.08;100.00
5283;BME280;15376;48.540;9.268;2023-05-14T04:17:08;97454.41;;;10.13;100.00
5283;BME280;15376;48.540;9.268;2023-05-14T04:19:33;97453.41;;;10.14;100.00
5283;BME280;15376;48.540;9.268;2023-05-14T04:21:58;97437.84;;;10.11;100.00
5283;BME280;15376;48.540;9.268;2023-05-14T04:24:24;97442.78;;;10.14;100.00
5283;BME280;15376;48.540;9.268;2023-05-14T04:26:49;97460.50;;;10.22;100.00
5283;BME280;15376;48.540;9.268;2023-05-14T04:29:14;97447.72;;;10.17;100.00
5283;BME280;15376;48.540;9.268;2023-05-14T04:31:40;97451.88;;;10.20;100.00
5283;BME280;15376;48.540;9.268;2023-05-14T04:34:07;97457.66;;;10.23;100.00
5283;BME280;15376;48.540;9.268;2023-05-14T04:36:32;97459.78;;;10.28;100.00
5283;BME280;15376;48.540;9.268;2023-05-14T04:38:58;97469.66;;;10.34;100.00
5283;BME280;15376;48.540;9.268;2023-05-14T04:41:23;97446.69;;;10.26;100.00
5283;BME280;15376;48.540;9.268;2023-05-14T04:43:49;97462.81;;;10.40;100.00
5283;BME280;15376;48.540;9.268;2023-05-14T04:46:14;97454.44;;;10.43;100.00
5283;BME280;15376;48.540;9.268;2023-05-14T04:48:40;97449.13;;;10.43;100.00
5283;BME280;15376;48.540;9.268;2023-05-14T04:51:05;97447.88;;;10.53;100.00
5283;BME280;15376;48.540;9.268;2023-05-14T04:53:31;97450.81;;;10.58;100.00
5283;BME280;15376;48.540;9.268;2023-05-14T04:55:56;97453.72;;;10.63;100.00
5283;BME280;15376;48.540;9.268;2023-05-14T04:58:21;97430.75;;;10.56;100.00
5283;BME280;15376;48.540;9.268;2023-05-14T05:00:48;97454.19;;;10.67;100.00
5283;BME280;15376;48.540;9.268;2023-05-14T05:03:14;97460.78;;;10.71;100.00
5283;BME280;15376;48.540;9.268;2023-05-14T05:05:39;97454.56;;;10.79;100.00
5283;BME280;15376;48.540;9.268;2023-05-14T05:08:04;97446.88;;;10.69;100.00
5283;BME280;15376;48.540;9.268;2023-05-14T05:10:30;97426.34;;;10.63;100.00
5283;BME280;15376;48.540;9.268;2023-05-14T05:12:55;97439.53;;;10.71;100.00
5283;BME280;15376;48.540;9.268;2023-05-14T05:15:20;97424.88;;;10.60;100.00
5283;BME280;15376;48.540;9.268;2023-05-14T05:17:46;97454.47;;;10.72;100.00
5283;BME280;15376;48.540;9.268;2023-05-14T05:20:11;97449.97;;;10.73;100.00
5283;BME280;15376;48.540;9.268;2023-05-14T05:22:37;97444.22;;;10.69;100.00
5283;BME280;15376;48.540;9.268;2023-05-14T05:25:02;97446.03;;;10.68;100.00
5283;BME280;15376;48.540;9.268;2023-05-14T05:27:32;97452.91;;;10.78;100.00
5283;BME280;15376;48.540;9.268;2023-05-14T05:29:58;97447.78;;;10.76;100.00
5283;BME280;15376;48.540;9.268;2023-05-14T05:32:23;97442.84;;;10.73;100.00
5283;BME280;15376;48.540;9.268;2023-05-14T05:34:49;97424.69;;;10.62;100.00
5283;BME280;15376;48.540;9.268;2023-05-14T05:37:16;97448.97;;;10.74;100.00
5283;BME280;15376;48.540;9.268;2023-05-14T05:39:41;97447.13;;;10.74;100.00
5283;BME280;15376;48.540;9.268;2023-05-14T05:42:07;97451.91;;;10.79;100.00
5283;BME280;15376;48.540;9.268;2023-05-14T05:44:32;97449.84;;;10.81;100.00
5283;BME280;15376;48.540;9.268;2023-05-14T05:46:57;97440.00;;;10.75;100.00
5283;BME280;15376;48.540;9.268;2023-05-14T05:49:23;97442.47;;;10.76;100.00
5283;BME280;15376;48.540;9.268;2023-05-14T05:51:48;97438.81;;;10.77;100.00
5283;BME280;15376;48.540;9.268;2023-05-14T05:54:13;97443.94;;;10.79;100.00
5283;BME280;15376;48.540;9.268;2023-05-14T05:56:39;97433.09;;;10.80;100.00
5283;BME280;15376;48.540;9.268;2023-05-14T05:59:04;97422.78;;;10.71;100.00
5283;BME280;15376;48.540;9.268;2023-05-14T06:01:29;97446.38;;;10.80;100.00
5283;BME280;15376;48.540;9.268;2023-05-14T06:03:55;97431.75;;;10.69;100.00
5283;BME280;15376;48.540;9.268;2023-05-14T06:06:21;97442.09;;;10.79;100.00
5283;BME280;15376;48.540;9.268;2023-05-14T06:08:46;97445.75;;;10.78;100.00
5283;BME280;15376;48.540;9.268;2023-05-14T06:11:11;97432.56;;;10.70;100.00
5283;BME280;15376;48.540;9.268;2023-05-14T06:13:37;97433.59;;;10.69;100.00
5283;BME280;15376;48.540;9.268;2023-05-14T06:16:02;97446.00;;;10.83;100.00
5283;BME280;15376;48.540;9.268;2023-05-14T06:18:27;97459.00;;;10.93;100.00
5283;BME280;15376;48.540;9.268;2023-05-14T06:20:53;97436.91;;;10.92;100.00
5283;BME280;15376;48.540;9.268;2023-05-14T06:23:20;97434.16;;;11.00;100.00
5283;BME280;15376;48.540;9.268;2023-05-14T06:25:46;97453.19;;;11.19;100.00
5283;BME280;15376;48.540;9.268;2023-05-14T06:28:13;97453.81;;;11.21;100.00
5283;BME280;15376;48.540;9.268;2023-05-14T06:30:38;97451.13;;;11.21;100.00
5283;BME280;15376;48.540;9.268;2023-05-14T06:33:04;97442.28;;;11.14;100.00
5283;BME280;15376;48.540;9.268;2023-05-14T06:35:29;97445.69;;;11.08;100.00
5283;BME280;15376;48.540;9.268;2023-05-14T06:37:54;97427.94;;;10.93;100.00
5283;BME280;15376;48.540;9.268;2023-05-14T06:40:20;97428.69;;;10.87;100.00
5283;BME280;15376;48.540;9.268;2023-05-14T06:42:45;97451.59;;;10.88;100.00
5283;BME280;15376;48.540;9.268;2023-05-14T06:45:10;97449.94;;;10.87;100.00
5283;BME280;15376;48.540;9.268;2023-05-14T06:47:36;97445.25;;;10.89;100.00
5283;BME280;15376;48.540;9.268;2023-05-14T06:50:01;97445.16;;;10.97;100.00
5283;BME280;15376;48.540;9.268;2023-05-14T06:52:26;97442.41;;;11.06;100.00
5283;BME280;15376;48.540;9.268;2023-05-14T06:54:52;97416.13;;;10.96;100.00
5283;BME280;15376;48.540;9.268;2023-05-14T06:57:17;97441.94;;;11.17;100.00
5283;BME280;15376;48.540;9.268;2023-05-14T06:59:42;97444.19;;;11.20;100.00
5283;BME280;15376;48.540;9.268;2023-05-14T07:02:08;97440.84;;;11.32;100.00
5283;BME280;15376;48.540;9.268;2023-05-14T07:04:33;97434.22;;;11.43;100.00
5283;BME280;15376;48.540;9.268;2023-05-14T07:06:59;97426.50;;;11.48;100.00
5283;BME280;15376;48.540;9.268;2023-05-14T07:09:24;97410.78;;;11.53;100.00
5283;BME280;15376;48.540;9.268;2023-05-14T07:11:49;97425.16;;;11.59;100.00
5283;BME280;15376;48.540;9.268;2023-05-14T07:14:15;97432.81;;;11.68;100.00
5283;BME280;15376;48.540;9.268;2023-05-14T07:16:40;97434.44;;;11.69;100.00
5283;BME280;15376;48.540;9.268;2023-05-14T07:19:06;97427.59;;;11.60;100.00
5283;BME280;15376;48.540;9.268;2023-05-14T07:21:33;97435.03;;;11.65;100.00
5283;BME280;15376;48.540;9.268;2023-05-14T07:23:59;97432.06;;;11.53;100.00
5283;BME280;15376;48.540;9.268;2023-05-14T07:26:24;97429.06;;;11.63;100.00
5283;BME280;15376;48.540;9.268;2023-05-14T07:28:50;97413.50;;;11.60;100.00
5283;BME280;15376;48.540;9.268;2023-05-14T07:31:15;97420.44;;;11.61;100.00
5283;BME280;15376;48.540;9.268;2023-05-14T07:33:41;97416.22;;;11.66;100.00
5283;BME280;15376;48.540;9.268;2023-05-14T07:36:06;97419.03;;;11.80;100.00
5283;BME280;15376;48.540;9.268;2023-05-14T07:38:32;97416.88;;;11.90;100.00
5283;BME280;15376;48.540;9.268;2023-05-14T07:40:57;97422.50;;;12.08;100.00
5283;BME280;15376;48.540;9.268;2023-05-14T07:43:23;97409.09;;;12.23;100.00
5283;BME280;15376;48.540;9.268;2023-05-14T07:45:48;97410.94;;;12.22;100.00
5283;BME280;15376;48.540;9.268;2023-05-14T07:48:14;97411.91;;;12.49;100.00
5283;BME280;15376;48.540;9.268;2023-05-14T07:50:39;97404.78;;;12.56;100.00
5283;BME280;15376;48.540;9.268;2023-05-14T07:53:04;97394.06;;;12.91;100.00
5283;BME280;15376;48.540;9.268;2023-05-14T07:55:30;97394.75;;;13.13;100.00
5283;BME280;15376;48.540;9.268;2023-05-14T07:57:55;97381.16;;;12.94;100.00
5283;BME280;15376;48.540;9.268;2023-05-14T08:00:20;97385.16;;;13.18;100.00
5283;BME280;15376;48.540;9.268;2023-05-14T08:02:46;97392.78;;;13.41;100.00
5283;BME280;15376;48.540;9.268;2023-05-14T08:05:12;97384.19;;;13.52;100.00
5283;BME280;15376;48.540;9.268;2023-05-14T08:07:38;97386.44;;;13.55;100.00
5283;BME280;15376;48.540;9.268;2023-05-14T08:10:03;97384.41;;;13.84;100.00
5283;BME280;15376;48.540;9.268;2023-05-14T08:12:29;97382.13;;;13.61;100.00
5283;BME280;15376;48.540;9.268;2023-05-14T08:14:54;97389.75;;;13.97;100.00
5283;BME280;15376;48.540;9.268;2023-05-14T08:17:20;97390.75;;;13.83;100.00
5283;BME280;15376;48.540;9.268;2023-05-14T08:19:46;97385.22;;;13.84;100.00
5283;BME280;15376;48.540;9.268;2023-05-14T08:22:11;97392.63;;;13.89;100.00
5283;BME280;15376;48.540;9.268;2023-05-14T08:24:37;97380.88;;;14.10;100.00
5283;BME280;15376;48.540;9.268;2023-05-14T08:27:03;97385.81;;;13.99;100.00
5283;BME280;15376;48.540;9.268;2023-05-14T08:29:28;97394.81;;;14.31;100.00
5283;BME280;15376;48.540;9.268;2023-05-14T08:31:54;97376.31;;;14.37;100.00
5283;BME280;15376;48.540;9.268;2023-05-14T08:34:19;97392.75;;;14.47;100.00
5283;BME280;15376;48.540;9.268;2023-05-14T08:36:44;97391.06;;;14.59;100.00
5283;BME280;15376;48.540;9.268;2023-05-14T08:39:10;97387.31;;;14.73;100.00
5283;BME280;15376;48.540;9.268;2023-05-14T08:41:35;97386.22;;;14.87;100.00
5283;BME280;15376;48.540;9.268;2023-05-14T08:44:06;97381.44;;;15.02;100.00
5283;BME280;15376;48.540;9.268;2023-05-14T08:46:36;97391.38;;;15.27;100.00
5283;BME280;15376;48.540;9.268;2023-05-14T08:49:26;97377.13;;;15.33;100.00
5283;BME280;15376;48.540;9.268;2023-05-14T08:51:53;97377.75;;;15.66;100.00
5283;BME280;15376;48.540;9.268;2023-05-14T08:54:19;97383.66;;;15.75;100.00
5283;BME280;15376;48.540;9.268;2023-05-14T08:56:46;97383.34;;;15.90;100.00
5283;BME280;15376;48.540;9.268;2023-05-14T08:59:12;97387.53;;;16.04;100.00
5283;BME280;15376;48.540;9.268;2023-05-14T09:01:38;97389.47;;;15.97;100.00
5283;BME280;15376;48.540;9.268;2023-05-14T09:04:05;97375.94;;;16.10;100.00
5283;BME280;15376;48.540;9.268;2023-05-14T09:06:34;97382.50;;;15.89;100.00
5283;BME280;15376;48.540;9.268;2023-05-14T09:09:02;97377.53;;;15.93;100.00
5283;BME280;15376;48.540;9.268;2023-05-14T09:11:27;97378.66;;;15.54;100.00
5283;BME280;15376;48.540;9.268;2023-05-14T09:13:52;97372.78;;;15.70;100.00
5283;BME280;15376;48.540;9.268;2023-05-14T09:16:19;97376.53;;;15.62;100.00
5283;BME280;15376;48.540;9.268;2023-05-14T09:18:45;97367.38;;;15.77;100.00
5283;BME280;15376;48.540;9.268;2023-05-14T09:21:13;97372.81;;;15.63;100.00
5283;BME280;15376;48.540;9.268;2023-05-14T09:23:41;97378.69;;;15.47;100.00
5283;BME280;15376;48.540;9.268;2023-05-14T09:26:08;97359.97;;;15.47;100.00
5283;BME280;15376;48.540;9.268;2023-05-14T09:28:33;97364.72;;;15.45;100.00
5283;BME280;15376;48.540;9.268;2023-05-14T09:30:59;97354.56;;;15.54;100.00
5283;BME280;15376;48.540;9.268;2023-05-14T09:33:27;97343.31;;;15.70;100.00
5283;BME280;15376;48.540;9.268;2023-05-14T09:35:57;97362.88;;;15.71;100.00
5283;BME280;15376;48.540;9.268;2023-05-14T09:38:28;97351.50;;;15.50;100.00
5283;BME280;15376;48.540;9.268;2023-05-14T09:40:54;97362.19;;;15.82;100.00
5283;BME280;15376;48.540;9.268;2023-05-14T09:43:19;97331.28;;;15.54;100.00
5283;BME280;15376;48.540;9.268;2023-05-14T09:45:45;97347.56;;;15.59;100.00
5283;BME280;15376;48.540;9.268;2023-05-14T09:48:10;97359.44;;;15.88;100.00
5283;BME280;15376;48.540;9.268;2023-05-14T09:50:42;97353.13;;;15.58;100.00
5283;BME280;15376;48.540;9.268;2023-05-14T09:53:09;97346.81;;;15.71;100.00
5283;BME280;15376;48.540;9.268;2023-05-14T09:55:35;97352.69;;;15.54;100.00
5283;BME280;15376;48.540;9.268;2023-05-14T09:58:01;97347.03;;;15.94;100.00
5283;BME280;15376;48.540;9.268;2023-05-14T10:00:28;97354.25;;;15.93;100.00
5283;BME280;15376;48.540;9.268;2023-05-14T10:02:54;97339.47;;;16.09;100.00
5283;BME280;15376;48.540;9.268;2023-05-14T10:05:22;97347.28;;;16.47;100.00
5283;BME280;15376;48.540;9.268;2023-05-14T10:07:48;97341.41;;;16.57;100.00
5283;BME280;15376;48.540;9.268;2023-05-14T10:10:18;97341.03;;;16.53;100.00
5283;BME280;15376;48.540;9.268;2023-05-14T10:13:00;97339.19;;;16.54;100.00
5283;BME280;15376;48.540;9.268;2023-05-14T10:15:41;97332.00;;;15.93;100.00
5283;BME280;15376;48.540;9.268;2023-05-14T10:18:12;97334.63;;;15.75;100.00
5283;BME280;15376;48.540;9.268;2023-05-14T10:20:40;97335.56;;;15.87;100.00
5283;BME280;15376;48.540;9.268;2023-05-14T10:23:06;97329.94;;;15.70;100.00
5283;BME280;15376;48.540;9.268;2023-05-14T10:25:33;97327.03;;;16.15;100.00
5283;BME280;15376;48.540;9.268;2023-05-14T10:27:59;97322.53;;;16.70;100.00
5283;BME280;15376;48.540;9.268;2023-05-14T10:30:25;97329.38;;;17.26;100.00
5283;BME280;15376;48.540;9.268;2023-05-14T10:33:07;97323.56;;;17.29;98.03
5283;BME280;15376;48.540;9.268;2023-05-14T10:36:03;97322.81;;;17.52;97.56
5283;BME280;15376;48.540;9.268;2023-05-14T10:38:34;97324.13;;;17.19;94.93
5283;BME280;15376;48.540;9.268;2023-05-14T10:41:01;97320.72;;;17.24;93.78
5283;BME280;15376;48.540;9.268;2023-05-14T10:43:28;97319.22;;;17.70;93.56
5283;BME280;15376;48.540;9.268;2023-05-14T10:45:58;97321.31;;;18.14;91.20
5283;BME280;15376;48.540;9.268;2023-05-14T10:48:24;97305.91;;;19.47;88.25
5283;BME280;15376;48.540;9.268;2023-05-14T10:50:51;97302.94;;;20.15;81.99
5283;BME280;15376;48.540;9.268;2023-05-14T10:53:17;97312.19;;;20.58;79.13
5283;BME280;15376;48.540;9.268;2023-05-14T10:55:43;97308.63;;;20.74;77.37
5283;BME280;15376;48.540;9.268;2023-05-14T10:58:12;97311.06;;;20.54;77.09
5283;BME280;15376;48.540;9.268;2023-05-14T11:00:38;97311.72;;;20.44;77.71
5283;BME280;15376;48.540;9.268;2023-05-14T11:03:05;97313.06;;;19.53;77.58
5283;BME280;15376;48.540;9.268;2023-05-14T11:05:31;97297.59;;;18.23;84.67
5283;BME280;15376;48.540;9.268;2023-05-14T11:07:58;97302.81;;;17.59;88.65
5283;BME280;15376;48.540;9.268;2023-05-14T11:10:26;97297.16;;;17.26;90.27
5283;BME280;15376;48.540;9.268;2023-05-14T11:12:55;97288.03;;;17.04;91.22
5283;BME280;15376;48.540;9.268;2023-05-14T11:15:23;97294.72;;;17.13;91.41
5283;BME280;15376;48.540;9.268;2023-05-14T11:17:49;97291.28;;;18.29;89.38
5283;BME280;15376;48.540;9.268;2023-05-14T11:20:15;97243.03;;;18.22;89.76
5283;BME280;15376;48.540;9.268;2023-05-14T11:22:42;97295.38;;;18.20;88.89
5283;BME280;15376;48.540;9.268;2023-05-14T11:25:08;97278.00;;;17.87;87.61
5283;BME280;15376;48.540;9.268;2023-05-14T11:27:36;97287.22;;;17.68;88.32
5283;BME280;15376;48.540;9.268;2023-05-14T11:30:02;97282.31;;;17.65;86.36
5283;BME280;15376;48.540;9.268;2023-05-14T11:32:28;97286.41;;;17.67;87.76
5283;BME280;15376;48.540;9.268;2023-05-14T11:34:55;97282.75;;;18.20;89.58
5283;BME280;15376;48.540;9.268;2023-05-14T11:37:21;97274.50;;;18.50;85.50
5283;BME280;15376;48.540;9.268;2023-05-14T11:39:48;97287.88;;;18.33;87.18
5283;BME280;15376;48.540;9.268;2023-05-14T11:42:14;97286.75;;;18.06;86.66
5283;BME280;15376;48.540;9.268;2023-05-14T11:44:41;97275.50;;;17.62;85.11
5283;BME280;15376;48.540;9.268;2023-05-14T11:47:09;97252.00;;;17.11;88.72
5283;BME280;15376;48.540;9.268;2023-05-14T11:49:35;97283.47;;;17.57;87.80
5283;BME280;15376;48.540;9.268;2023-05-14T11:52:03;97253.94;;;17.57;89.28
5283;BME280;15376;48.540;9.268;2023-05-14T11:54:33;97273.69;;;17.75;87.93
5283;BME280;15376;48.540;9.268;2023-05-14T11:57:01;97267.72;;;17.84;85.83
5283;BME280;15376;48.540;9.268;2023-05-14T11:59:28;97274.81;;;17.44;87.71
5283;BME280;15376;48.540;9.268;2023-05-14T12:01:55;97274.13;;;17.48;86.19
5283;BME280;15376;48.540;9.268;2023-05-14T12:04:21;97254.84;;;17.40;87.89
5283;BME280;15376;48.540;9.268;2023-05-14T12:06:57;97261.03;;;17.63;87.98
5283;BME280;15376;48.540;9.268;2023-05-14T12:09:24;97268.06;;;17.53;89.68
5283;BME280;15376;48.540;9.268;2023-05-14T12:11:50;97243.44;;;17.67;89.96
5283;BME280;15376;48.540;9.268;2023-05-14T12:14:18;97261.53;;;17.84;86.42
5283;BME280;15376;48.540;9.268;2023-05-14T12:16:44;97248.56;;;17.69;86.86
5283;BME280;15376;48.540;9.268;2023-05-14T12:19:12;97247.75;;;17.80;87.02
5283;BME280;15376;48.540;9.268;2023-05-14T12:21:38;97239.00;;;17.85;87.04
5283;BME280;15376;48.540;9.268;2023-05-14T12:24:08;97235.84;;;17.88;88.28
5283;BME280;15376;48.540;9.268;2023-05-14T12:26:33;97231.75;;;17.85;88.45
5283;BME280;15376;48.540;9.268;2023-05-14T12:29:00;97227.44;;;17.96;85.68
5283;BME280;15376;48.540;9.268;2023-05-14T12:31:35;97235.13;;;17.92;87.92
5283;BME280;15376;48.540;9.268;2023-05-14T12:34:02;97228.84;;;18.39;83.91
5283;BME280;15376;48.540;9.268;2023-05-14T12:36:28;97216.00;;;18.69;83.51
5283;BME280;15376;48.540;9.268;2023-05-14T12:39:00;97214.41;;;19.02;83.44
5283;BME280;15376;48.540;9.268;2023-05-14T12:41:26;97219.91;;;19.07;83.23
5283;BME280;15376;48.540;9.268;2023-05-14T12:43:52;97201.09;;;20.01;82.19
5283;BME280;15376;48.540;9.268;2023-05-14T12:46:17;97208.78;;;21.06;76.82
5283;BME280;15376;48.540;9.268;2023-05-14T12:48:43;97211.22;;;20.54;74.41
5283;BME280;15376;48.540;9.268;2023-05-14T12:51:08;97213.34;;;20.30;74.42
5283;BME280;15376;48.540;9.268;2023-05-14T12:53:34;97206.84;;;20.26;76.08
5283;BME280;15376;48.540;9.268;2023-05-14T12:55:59;97206.94;;;20.14;75.20
5283;BME280;15376;48.540;9.268;2023-05-14T12:58:24;97206.25;;;20.02;73.26
5283;BME280;15376;48.540;9.268;2023-05-14T13:00:50;97203.16;;;19.72;72.96
5283;BME280;15376;48.540;9.268;2023-05-14T13:03:15;97210.34;;;19.49;74.96
5283;BME280;15376;48.540;9.268;2023-05-14T13:05:41;97197.03;;;18.92;75.02